createdAt,value
2022-09-13T04:00:31.493Z,18.52
2022-09-13T04:05:31.425Z,18.67
2022-09-13T04:10:31.369Z,18.67
2022-09-13T04:15:38.368Z,18.83
2022-09-13T04:20:31.258Z,18.89
2022-09-13T04:25:31.209Z,19.00
2022-09-13T04:30:31.145Z,18.96
2022-09-13T04:35:31.116Z,18.90
2022-09-13T04:40:31.039Z,18.91
2022-09-13T04:45:31.011Z,18.94
2022-09-13T04:50:30.925Z,19.02
2022-09-13T04:55:30.897Z,18.83
2022-09-13T05:00:30.820Z,18.85
2022-09-13T05:05:30.765Z,18.88
2022-09-13T05:10:30.710Z,18.91
2022-09-13T05:15:30.680Z,18.85
2022-09-13T05:20:30.610Z,18.83
2022-09-13T05:25:30.548Z,18.74
2022-09-13T05:30:30.490Z,18.58
2022-09-13T05:35:30.456Z,18.85
2022-09-13T05:40:30.454Z,18.89
2022-09-13T05:45:30.343Z,18.94
2022-09-13T05:50:56.948Z,19.16
2022-09-13T05:55:31.330Z,19.15
2022-09-13T06:00:30.182Z,19.38
2022-09-13T06:05:31.866Z,19.68
2022-09-13T06:10:30.058Z,19.90
2022-09-13T06:15:30.038Z,20.04
2022-09-13T06:20:29.953Z,20.12
2022-09-13T06:25:29.903Z,20.21
2022-09-13T06:30:29.848Z,20.30
2022-09-13T06:35:29.892Z,20.43
2022-09-13T06:40:29.863Z,20.51
2022-09-13T06:45:29.690Z,20.72
2022-09-13T06:50:29.629Z,21.00
2022-09-13T06:55:29.595Z,21.16
2022-09-13T07:00:29.521Z,21.48
2022-09-13T07:05:29.468Z,21.55
2022-09-13T07:10:29.409Z,21.66
2022-09-13T07:15:29.379Z,21.60
2022-09-13T07:20:29.303Z,21.69
2022-09-13T07:25:29.245Z,21.73
2022-09-13T07:30:29.196Z,22.02
2022-09-13T07:35:29.161Z,22.42
2022-09-13T07:40:29.082Z,22.82
2022-09-13T07:45:29.030Z,22.99
2022-09-13T07:50:28.973Z,23.08
2022-09-13T07:55:28.945Z,23.60
2022-09-13T08:00:28.874Z,23.95
2022-09-13T08:05:28.817Z,24.69
2022-09-13T08:10:28.766Z,24.50
2022-09-13T08:15:28.800Z,24.77
2022-09-13T08:20:28.663Z,25.07
2022-09-13T08:25:28.598Z,25.46
2022-09-13T08:30:28.547Z,26.12
2022-09-13T08:35:28.518Z,26.62
2022-09-13T08:40:28.446Z,27.88
2022-09-13T08:45:28.385Z,28.63
2022-09-13T08:50:28.331Z,28.92
2022-09-13T08:55:28.383Z,29.10
2022-09-13T09:00:28.226Z,29.56
2022-09-13T09:05:28.173Z,28.28
2022-09-13T09:10:28.127Z,28.89
2022-09-13T09:15:28.094Z,28.33
2022-09-13T09:20:28.016Z,27.45
2022-09-13T09:25:27.958Z,27.65
2022-09-13T09:30:27.908Z,27.26
2022-09-13T09:35:27.959Z,27.49
2022-09-13T09:40:31.635Z,27.56
2022-09-13T09:45:27.745Z,27.58
2022-09-13T09:50:27.695Z,27.33
2022-09-13T09:55:27.750Z,27.47
2022-09-13T10:00:27.585Z,26.78
2022-09-13T10:05:27.537Z,26.63
2022-09-13T10:10:27.498Z,27.36
2022-09-13T10:15:27.448Z,28.37
2022-09-13T10:20:34.407Z,27.84
2022-09-13T10:25:27.335Z,27.81
2022-09-13T10:30:27.300Z,28.44
2022-09-13T10:35:27.238Z,28.19
2022-09-13T10:40:27.219Z,27.85
2022-09-13T10:45:27.113Z,27.75
2022-09-13T10:50:27.060Z,27.41
2022-09-13T10:55:27.036Z,27.12
2022-09-13T11:00:26.956Z,27.61
2022-09-13T11:05:26.904Z,27.36
2022-09-13T11:10:26.846Z,27.47
2022-09-13T11:15:26.817Z,26.89
2022-09-13T11:20:26.743Z,26.78
2022-09-13T11:25:26.689Z,26.72
2022-09-13T11:30:30.008Z,26.88
2022-09-13T11:35:26.602Z,27.13
2022-09-13T11:40:26.606Z,27.38
2022-09-13T11:45:26.638Z,26.96
2022-09-13T11:50:26.433Z,27.66
2022-09-13T11:55:26.399Z,27.25
2022-09-13T12:00:26.320Z,27.27
2022-09-13T12:05:26.262Z,27.58
2022-09-13T12:10:26.210Z,27.42
2022-09-13T12:15:26.184Z,27.51
2022-09-13T12:20:26.109Z,27.55
2022-09-13T12:25:26.054Z,27.84
2022-09-13T12:30:26.000Z,27.90
2022-09-13T12:35:25.965Z,28.00
2022-09-13T12:40:25.980Z,28.33
2022-09-13T12:45:25.924Z,27.52
2022-09-13T12:50:42.752Z,27.55
2022-09-13T12:55:46.108Z,27.67
2022-09-13T13:00:26.685Z,27.77
2022-09-13T13:05:25.630Z,27.67
2022-09-13T13:10:25.582Z,27.37
2022-09-13T13:15:25.636Z,27.88
2022-09-13T13:20:25.470Z,27.98
2022-09-13T13:25:25.418Z,28.08
2022-09-13T13:30:25.367Z,27.86
2022-09-13T13:35:25.419Z,27.89
2022-09-13T13:40:25.374Z,27.91
2022-09-13T13:45:25.277Z,27.95
2022-09-13T13:50:25.155Z,28.03
2022-09-13T13:55:25.122Z,27.70
2022-09-13T14:00:25.061Z,27.88
2022-09-13T14:05:25.005Z,27.72
2022-09-13T14:10:25.155Z,27.46
2022-09-13T14:15:24.934Z,27.26
2022-09-13T14:20:24.835Z,27.18
2022-09-13T14:25:24.784Z,27.34
2022-09-13T14:30:24.733Z,27.19
2022-09-13T14:35:24.749Z,27.26
2022-09-13T14:40:24.712Z,27.17
2022-09-13T14:45:24.577Z,27.23
2022-09-13T14:50:24.519Z,26.98
2022-09-13T14:55:24.589Z,27.41
2022-09-13T15:00:24.523Z,27.63
2022-09-13T15:05:24.364Z,27.45
2022-09-13T15:10:24.308Z,27.21
2022-09-13T15:15:24.331Z,26.86
2022-09-13T15:20:24.204Z,26.94
2022-09-13T15:25:24.285Z,26.72
2022-09-13T15:30:24.175Z,26.59
2022-09-13T15:35:24.142Z,26.38
2022-09-13T15:40:24.031Z,26.60
2022-09-13T15:45:23.940Z,26.37
2022-09-13T15:50:23.887Z,26.87
2022-09-13T15:55:23.946Z,26.68
2022-09-13T16:00:23.779Z,26.64
2022-09-13T16:05:23.724Z,26.57
2022-09-13T16:10:23.675Z,26.49
2022-09-13T16:15:23.663Z,26.36
2022-09-13T16:20:30.596Z,26.30
2022-09-13T16:25:23.507Z,26.13
2022-09-13T16:30:23.452Z,25.51
2022-09-13T16:35:23.423Z,25.61
2022-09-13T16:40:23.448Z,25.54
2022-09-13T16:45:23.295Z,25.46
2022-09-13T16:50:23.244Z,25.40
2022-09-13T16:55:23.296Z,25.62
2022-09-13T17:00:23.153Z,25.55
2022-09-13T17:05:23.087Z,25.29
2022-09-13T17:10:23.033Z,24.65
2022-09-13T17:15:23.085Z,24.44
2022-09-13T17:20:22.928Z,24.30
2022-09-13T17:25:22.877Z,24.17
2022-09-13T17:30:22.820Z,24.27
2022-09-13T17:35:22.791Z,24.20
2022-09-13T17:40:22.748Z,24.11
2022-09-13T17:45:22.654Z,24.03
2022-09-13T17:50:22.604Z,23.98
2022-09-13T17:55:22.564Z,23.91
2022-09-13T18:00:22.492Z,23.84
2022-09-13T18:05:22.441Z,23.77
2022-09-13T18:10:45.493Z,23.69
2022-09-13T18:15:23.355Z,23.65
2022-09-13T18:20:22.272Z,23.53
2022-09-13T18:25:22.222Z,23.37
2022-09-13T18:30:22.161Z,23.31
2022-09-13T18:35:22.132Z,23.26
2022-09-13T18:40:22.227Z,23.24
2022-09-13T18:45:21.995Z,23.23
2022-09-13T18:50:21.944Z,23.18
2022-09-13T18:55:21.992Z,23.13
2022-09-13T19:00:21.830Z,23.05
2022-09-13T19:05:21.775Z,22.77
2022-09-13T19:10:21.720Z,22.56
2022-09-13T19:15:21.695Z,22.48
2022-09-13T19:20:21.612Z,22.57
2022-09-13T19:25:21.559Z,22.45
2022-09-13T19:30:21.506Z,22.55
2022-09-13T19:35:22.261Z,22.59
2022-09-13T19:40:21.460Z,22.55
2022-09-13T19:45:21.342Z,22.61
2022-09-13T19:50:21.294Z,22.47
2022-09-13T19:55:21.258Z,22.47
2022-09-13T20:00:21.187Z,22.50
2022-09-13T20:05:23.717Z,22.44
2022-09-13T20:10:22.078Z,22.35
2022-09-13T20:15:21.052Z,22.30
2022-09-13T20:20:20.975Z,22.20
2022-09-13T20:25:20.924Z,22.12
2022-09-13T20:30:20.871Z,22.07
2022-09-13T20:35:20.838Z,21.96
2022-09-13T20:40:20.824Z,21.85
2022-09-13T20:45:20.732Z,21.80
2022-09-13T20:50:20.660Z,21.68
2022-09-13T20:55:20.624Z,21.57
2022-09-13T21:00:20.555Z,21.50
2022-09-13T21:05:20.509Z,21.49
2022-09-13T21:10:20.446Z,21.46
2022-09-13T21:15:20.495Z,21.42
2022-09-13T21:20:20.343Z,21.44
2022-09-13T21:25:20.271Z,21.43
2022-09-13T21:30:20.232Z,21.51
2022-09-13T21:35:20.194Z,21.52
2022-09-13T21:40:20.194Z,21.45
2022-09-13T21:45:20.058Z,21.38
2022-09-13T21:50:20.014Z,21.42
2022-09-13T21:55:20.062Z,21.44
2022-09-13T22:00:19.907Z,21.45
2022-09-13T22:05:19.864Z,21.54
2022-09-13T22:10:19.795Z,21.57
2022-09-13T22:15:19.764Z,21.47
2022-09-13T22:20:26.727Z,21.45
2022-09-13T22:25:19.635Z,21.52
2022-09-13T22:30:19.576Z,21.50
2022-09-13T22:35:19.757Z,21.48
2022-09-13T22:40:19.564Z,21.45
2022-09-13T22:45:19.431Z,21.34
2022-09-13T22:50:19.399Z,21.37
2022-09-13T22:55:19.327Z,21.32
2022-09-13T23:00:19.256Z,21.32
2022-09-13T23:05:19.200Z,21.29
2022-09-13T23:10:19.153Z,21.38
2022-09-13T23:15:19.129Z,21.40
2022-09-13T23:20:19.034Z,21.37
2022-09-13T23:25:18.981Z,21.40
